sensor_id;sensor_type;location;lat;lon;timestamp;P1;durP1;ratioP1;P2;durP2;ratioP2
5058;SDS011;2548;52.050;11.036;2023-05-31T00:00:27;6.13;;;3.20;;
5058;SDS011;2548;52.050;11.036;2023-05-31T00:02:55;5.25;;;4.47;;
5058;SDS011;2548;52.050;11.036;2023-05-31T00:05:22;7.10;;;4.55;;
5058;SDS011;2548;52.050;11.036;2023-05-31T00:07:50;7.40;;;4.40;;
5058;SDS011;2548;52.050;11.036;2023-05-31T00:10:17;7.50;;;4.65;;
5058;SDS011;2548;52.050;11.036;2023-05-31T00:12:45;14.40;;;4.10;;
5058;SDS011;2548;52.050;11.036;2023-05-31T00:15:14;7.60;;;4.40;;
5058;SDS011;2548;52.050;11.036;2023-05-31T00:17:41;7.57;;;4.80;;
5058;SDS011;2548;52.050;11.036;2023-05-31T00:20:09;9.23;;;4.50;;
5058;SDS011;2548;52.050;11.036;2023-05-31T00:22:37;4.85;;;3.70;;
5058;SDS011;2548;52.050;11.036;2023-05-31T00:25:05;4.35;;;3.95;;
5058;SDS011;2548;52.050;11.036;2023-05-31T00:27:33;8.65;;;4.13;;
5058;SDS011;2548;52.050;11.036;2023-05-31T00:30:01;4.45;;;4.05;;
5058;SDS011;2548;52.050;11.036;2023-05-31T00:32:30;11.70;;;5.00;;
5058;SDS011;2548;52.050;11.036;2023-05-31T00:34:57;4.38;;;3.92;;
5058;SDS011;2548;52.050;11.036;2023-05-31T00:37:25;9.55;;;4.78;;
5058;SDS011;2548;52.050;11.036;2023-05-31T00:39:53;11.70;;;4.72;;
5058;SDS011;2548;52.050;11.036;2023-05-31T00:42:20;6.70;;;5.32;;
5058;SDS011;2548;52.050;11.036;2023-05-31T00:44:48;10.35;;;5.43;;
5058;SDS011;2548;52.050;11.036;2023-05-31T00:47:15;4.53;;;4.13;;
5058;SDS011;2548;52.050;11.036;2023-05-31T00:49:44;25.00;;;4.93;;
5058;SDS011;2548;52.050;11.036;2023-05-31T00:52:12;5.95;;;4.60;;
5058;SDS011;2548;52.050;11.036;2023-05-31T00:54:39;7.88;;;4.55;;
5058;SDS011;2548;52.050;11.036;2023-05-31T00:57:07;14.57;;;4.47;;
5058;SDS011;2548;52.050;11.036;2023-05-31T00:59:35;6.55;;;3.90;;
5058;SDS011;2548;52.050;11.036;2023-05-31T01:02:03;15.95;;;4.53;;
5058;SDS011;2548;52.050;11.036;2023-05-31T01:04:31;6.32;;;3.97;;
5058;SDS011;2548;52.050;11.036;2023-05-31T01:07:00;7.45;;;5.47;;
5058;SDS011;2548;52.050;11.036;2023-05-31T01:09:28;5.10;;;4.38;;
5058;SDS011;2548;52.050;11.036;2023-05-31T01:11:58;7.32;;;4.40;;
5058;SDS011;2548;52.050;11.036;2023-05-31T01:14:36;8.57;;;5.20;;
5058;SDS011;2548;52.050;11.036;2023-05-31T01:17:13;8.25;;;4.53;;
5058;SDS011;2548;52.050;11.036;2023-05-31T01:19:52;8.23;;;4.97;;
5058;SDS011;2548;52.050;11.036;2023-05-31T01:22:29;14.35;;;5.82;;
5058;SDS011;2548;52.050;11.036;2023-05-31T01:25:14;5.30;;;4.85;;
5058;SDS011;2548;52.050;11.036;2023-05-31T01:27:54;21.15;;;6.45;;
5058;SDS011;2548;52.050;11.036;2023-05-31T01:30:25;6.20;;;4.93;;
5058;SDS011;2548;52.050;11.036;2023-05-31T01:32:55;9.63;;;5.05;;
5058;SDS011;2548;52.050;11.036;2023-05-31T01:35:24;12.30;;;4.45;;
5058;SDS011;2548;52.050;11.036;2023-05-31T01:37:51;8.38;;;5.30;;
5058;SDS011;2548;52.050;11.036;2023-05-31T01:40:19;11.25;;;5.32;;
5058;SDS011;2548;52.050;11.036;2023-05-31T01:42:47;9.52;;;4.63;;
5058;SDS011;2548;52.050;11.036;2023-05-31T01:45:18;8.48;;;4.95;;
5058;SDS011;2548;52.050;11.036;2023-05-31T01:47:48;14.57;;;5.40;;
5058;SDS011;2548;52.050;11.036;2023-05-31T01:50:16;7.95;;;5.30;;
5058;SDS011;2548;52.050;11.036;2023-05-31T01:52:46;6.72;;;4.90;;
5058;SDS011;2548;52.050;11.036;2023-05-31T01:55:13;7.97;;;4.70;;
5058;SDS011;2548;52.050;11.036;2023-05-31T01:57:42;5.95;;;4.78;;
5058;SDS011;2548;52.050;11.036;2023-05-31T02:00:13;13.80;;;5.00;;
5058;SDS011;2548;52.050;11.036;2023-05-31T02:02:42;11.68;;;5.35;;
5058;SDS011;2548;52.050;11.036;2023-05-31T02:05:11;10.43;;;5.72;;
5058;SDS011;2548;52.050;11.036;2023-05-31T02:07:40;10.73;;;5.20;;
5058;SDS011;2548;52.050;11.036;2023-05-31T02:10:08;6.85;;;4.90;;
5058;SDS011;2548;52.050;11.036;2023-05-31T02:12:37;9.48;;;4.65;;
5058;SDS011;2548;52.050;11.036;2023-05-31T02:15:06;6.10;;;5.03;;
5058;SDS011;2548;52.050;11.036;2023-05-31T02:17:36;10.07;;;5.10;;
5058;SDS011;2548;52.050;11.036;2023-05-31T02:20:09;9.20;;;5.13;;
5058;SDS011;2548;52.050;11.036;2023-05-31T02:22:38;5.70;;;4.15;;
5058;SDS011;2548;52.050;11.036;2023-05-31T02:25:07;11.20;;;4.60;;
5058;SDS011;2548;52.050;11.036;2023-05-31T02:27:38;9.48;;;5.40;;
5058;SDS011;2548;52.050;11.036;2023-05-31T02:30:07;5.53;;;4.50;;
5058;SDS011;2548;52.050;11.036;2023-05-31T02:32:36;7.75;;;4.43;;
5058;SDS011;2548;52.050;11.036;2023-05-31T02:35:04;7.80;;;5.57;;
5058;SDS011;2548;52.050;11.036;2023-05-31T02:37:34;10.45;;;5.28;;
5058;SDS011;2548;52.050;11.036;2023-05-31T02:40:02;6.50;;;4.38;;
5058;SDS011;2548;52.050;11.036;2023-05-31T02:42:34;6.95;;;5.00;;
5058;SDS011;2548;52.050;11.036;2023-05-31T02:45:02;6.65;;;4.68;;
5058;SDS011;2548;52.050;11.036;2023-05-31T02:47:30;10.18;;;5.13;;
5058;SDS011;2548;52.050;11.036;2023-05-31T02:49:57;7.90;;;4.75;;
5058;SDS011;2548;52.050;11.036;2023-05-31T02:52:26;11.38;;;5.80;;
5058;SDS011;2548;52.050;11.036;2023-05-31T02:55:15;8.50;;;5.47;;
5058;SDS011;2548;52.050;11.036;2023-05-31T02:58:21;9.50;;;6.40;;
5058;SDS011;2548;52.050;11.036;2023-05-31T03:01:08;11.13;;;5.65;;
5058;SDS011;2548;52.050;11.036;2023-05-31T03:03:45;12.93;;;5.82;;
5058;SDS011;2548;52.050;11.036;2023-05-31T03:06:22;6.60;;;6.00;;
5058;SDS011;2548;52.050;11.036;2023-05-31T03:08:50;15.13;;;6.22;;
5058;SDS011;2548;52.050;11.036;2023-05-31T03:11:20;7.47;;;5.20;;
5058;SDS011;2548;52.050;11.036;2023-05-31T03:13:47;11.75;;;7.05;;
5058;SDS011;2548;52.050;11.036;2023-05-31T03:16:15;6.38;;;4.88;;
5058;SDS011;2548;52.050;11.036;2023-05-31T03:18:46;8.45;;;4.97;;
5058;SDS011;2548;52.050;11.036;2023-05-31T03:21:13;8.88;;;4.55;;
5058;SDS011;2548;52.050;11.036;2023-05-31T03:23:41;9.18;;;6.30;;
5058;SDS011;2548;52.050;11.036;2023-05-31T03:26:09;17.60;;;5.30;;
5058;SDS011;2548;52.050;11.036;2023-05-31T03:28:38;13.77;;;5.90;;
5058;SDS011;2548;52.050;11.036;2023-05-31T03:31:07;12.40;;;5.88;;
5058;SDS011;2548;52.050;11.036;2023-05-31T03:33:34;15.25;;;5.72;;
5058;SDS011;2548;52.050;11.036;2023-05-31T03:36:02;16.15;;;5.68;;
5058;SDS011;2548;52.050;11.036;2023-05-31T03:38:31;10.50;;;5.95;;
5058;SDS011;2548;52.050;11.036;2023-05-31T03:40:58;11.07;;;5.40;;
5058;SDS011;2548;52.050;11.036;2023-05-31T03:43:26;14.52;;;6.13;;
5058;SDS011;2548;52.050;11.036;2023-05-31T03:45:55;22.10;;;5.72;;
5058;SDS011;2548;52.050;11.036;2023-05-31T03:48:26;10.23;;;5.85;;
5058;SDS011;2548;52.050;11.036;2023-05-31T03:50:54;7.28;;;5.13;;
5058;SDS011;2548;52.050;11.036;2023-05-31T03:53:22;8.10;;;5.90;;
5058;SDS011;2548;52.050;11.036;2023-05-31T03:55:50;6.07;;;5.50;;
5058;SDS011;2548;52.050;11.036;2023-05-31T03:58:19;14.80;;;5.30;;
5058;SDS011;2548;52.050;11.036;2023-05-31T04:00:47;13.20;;;7.00;;
5058;SDS011;2548;52.050;11.036;2023-05-31T04:03:16;17.75;;;7.55;;
5058;SDS011;2548;52.050;11.036;2023-05-31T04:05:43;24.08;;;6.30;;
5058;SDS011;2548;52.050;11.036;2023-05-31T04:08:11;15.02;;;8.52;;
5058;SDS011;2548;52.050;11.036;2023-05-31T04:10:38;11.65;;;7.03;;
5058;SDS011;2548;52.050;11.036;2023-05-31T04:13:06;8.98;;;5.90;;
5058;SDS011;2548;52.050;11.036;2023-05-31T04:15:34;10.65;;;6.70;;
5058;SDS011;2548;52.050;11.036;2023-05-31T04:18:03;6.78;;;6.15;;
5058;SDS011;2548;52.050;11.036;2023-05-31T04:20:33;9.02;;;6.43;;
5058;SDS011;2548;52.050;11.036;2023-05-31T04:23:01;9.10;;;6.35;;
5058;SDS011;2548;52.050;11.036;2023-05-31T04:25:28;8.27;;;6.85;;
5058;SDS011;2548;52.050;11.036;2023-05-31T04:27:56;11.85;;;6.55;;
5058;SDS011;2548;52.050;11.036;2023-05-31T04:30:24;11.27;;;7.10;;
5058;SDS011;2548;52.050;11.036;2023-05-31T04:32:52;8.07;;;5.55;;
5058;SDS011;2548;52.050;11.036;2023-05-31T04:35:22;10.95;;;5.53;;
5058;SDS011;2548;52.050;11.036;2023-05-31T04:37:56;14.40;;;5.88;;
5058;SDS011;2548;52.050;11.036;2023-05-31T04:40:25;10.52;;;4.80;;
5058;SDS011;2548;52.050;11.036;2023-05-31T04:42:53;8.57;;;6.22;;
5058;SDS011;2548;52.050;11.036;2023-05-31T04:45:28;7.70;;;6.00;;
5058;SDS011;2548;52.050;11.036;2023-05-31T04:47:56;13.50;;;6.13;;
5058;SDS011;2548;52.050;11.036;2023-05-31T04:50:24;7.45;;;6.43;;
5058;SDS011;2548;52.050;11.036;2023-05-31T04:52:52;14.88;;;7.35;;
5058;SDS011;2548;52.050;11.036;2023-05-31T04:55:21;13.75;;;6.50;;
5058;SDS011;2548;52.050;11.036;2023-05-31T04:57:49;10.05;;;6.50;;
5058;SDS011;2548;52.050;11.036;2023-05-31T05:00:17;11.77;;;7.00;;
5058;SDS011;2548;52.050;11.036;2023-05-31T05:02:56;10.88;;;6.43;;
5058;SDS011;2548;52.050;11.036;2023-05-31T05:05:25;12.52;;;6.72;;
5058;SDS011;2548;52.050;11.036;2023-05-31T05:07:53;16.02;;;6.20;;
5058;SDS011;2548;52.050;11.036;2023-05-31T05:10:24;9.65;;;5.43;;
5058;SDS011;2548;52.050;11.036;2023-05-31T05:12:51;9.45;;;6.45;;
5058;SDS011;2548;52.050;11.036;2023-05-31T05:15:19;14.48;;;6.50;;
5058;SDS011;2548;52.050;11.036;2023-05-31T05:17:47;9.73;;;6.47;;
5058;SDS011;2548;52.050;11.036;2023-05-31T05:20:15;7.15;;;5.18;;
5058;SDS011;2548;52.050;11.036;2023-05-31T05:22:50;7.90;;;5.63;;
5058;SDS011;2548;52.050;11.036;2023-05-31T05:25:19;7.47;;;5.97;;
5058;SDS011;2548;52.050;11.036;2023-05-31T05:27:50;12.23;;;5.35;;
5058;SDS011;2548;52.050;11.036;2023-05-31T05:30:18;13.20;;;5.90;;
5058;SDS011;2548;52.050;11.036;2023-05-31T05:32:47;16.17;;;6.22;;
5058;SDS011;2548;52.050;11.036;2023-05-31T05:35:14;10.55;;;5.35;;
5058;SDS011;2548;52.050;11.036;2023-05-31T05:37:42;9.55;;;5.30;;
5058;SDS011;2548;52.050;11.036;2023-05-31T05:40:10;13.65;;;7.10;;
5058;SDS011;2548;52.050;11.036;2023-05-31T05:42:37;17.40;;;6.25;;
5058;SDS011;2548;52.050;11.036;2023-05-31T05:45:07;6.47;;;5.40;;
5058;SDS011;2548;52.050;11.036;2023-05-31T05:47:37;9.73;;;5.63;;
5058;SDS011;2548;52.050;11.036;2023-05-31T05:50:05;6.95;;;5.72;;
5058;SDS011;2548;52.050;11.036;2023-05-31T05:52:33;10.15;;;6.35;;
5058;SDS011;2548;52.050;11.036;2023-05-31T05:55:01;8.45;;;4.38;;
5058;SDS011;2548;52.050;11.036;2023-05-31T05:57:29;10.23;;;5.20;;
5058;SDS011;2548;52.050;11.036;2023-05-31T06:00:10;5.85;;;4.85;;
5058;SDS011;2548;52.050;11.036;2023-05-31T06:02:39;7.38;;;4.57;;
5058;SDS011;2548;52.050;11.036;2023-05-31T06:05:07;10.55;;;4.72;;
5058;SDS011;2548;52.050;11.036;2023-05-31T06:07:35;10.25;;;4.53;;
5058;SDS011;2548;52.050;11.036;2023-05-31T06:10:03;7.88;;;4.72;;
5058;SDS011;2548;52.050;11.036;2023-05-31T06:12:32;10.65;;;4.63;;
5058;SDS011;2548;52.050;11.036;2023-05-31T06:15:00;3.67;;;3.33;;
5058;SDS011;2548;52.050;11.036;2023-05-31T06:17:29;6.38;;;3.55;;
5058;SDS011;2548;52.050;11.036;2023-05-31T06:19:57;10.18;;;4.30;;
5058;SDS011;2548;52.050;11.036;2023-05-31T06:22:24;5.32;;;3.58;;
5058;SDS011;2548;52.050;11.036;2023-05-31T06:24:51;6.80;;;4.15;;
5058;SDS011;2548;52.050;11.036;2023-05-31T06:27:19;6.60;;;2.83;;
5058;SDS011;2548;52.050;11.036;2023-05-31T06:29:47;3.72;;;2.83;;
5058;SDS011;2548;52.050;11.036;2023-05-31T06:32:26;3.87;;;2.97;;
5058;SDS011;2548;52.050;11.036;2023-05-31T06:34:55;6.45;;;3.50;;
5058;SDS011;2548;52.050;11.036;2023-05-31T06:37:23;8.03;;;2.93;;
5058;SDS011;2548;52.050;11.036;2023-05-31T06:39:51;4.35;;;3.38;;
5058;SDS011;2548;52.050;11.036;2023-05-31T06:42:20;5.30;;;2.90;;
5058;SDS011;2548;52.050;11.036;2023-05-31T06:44:48;7.55;;;2.85;;
5058;SDS011;2548;52.050;11.036;2023-05-31T06:47:25;5.65;;;2.80;;
5058;SDS011;2548;52.050;11.036;2023-05-31T06:50:14;3.17;;;2.58;;
5058;SDS011;2548;52.050;11.036;2023-05-31T06:52:44;10.18;;;2.90;;
5058;SDS011;2548;52.050;11.036;2023-05-31T06:55:35;5.70;;;2.90;;
5058;SDS011;2548;52.050;11.036;2023-05-31T06:58:02;7.27;;;2.50;;
5058;SDS011;2548;52.050;11.036;2023-05-31T07:00:33;4.10;;;3.10;;
5058;SDS011;2548;52.050;11.036;2023-05-31T07:03:00;5.07;;;2.73;;
5058;SDS011;2548;52.050;11.036;2023-05-31T07:05:29;3.30;;;2.77;;
5058;SDS011;2548;52.050;11.036;2023-05-31T07:07:58;4.10;;;2.50;;
5058;SDS011;2548;52.050;11.036;2023-05-31T07:10:26;3.43;;;3.13;;
5058;SDS011;2548;52.050;11.036;2023-05-31T07:12:54;5.90;;;3.00;;
5058;SDS011;2548;52.050;11.036;2023-05-31T07:15:21;5.00;;;3.37;;
5058;SDS011;2548;52.050;11.036;2023-05-31T07:17:49;3.37;;;2.50;;
5058;SDS011;2548;52.050;11.036;2023-05-31T07:20:16;6.07;;;3.50;;
5058;SDS011;2548;52.050;11.036;2023-05-31T07:22:45;3.50;;;3.10;;
5058;SDS011;2548;52.050;11.036;2023-05-31T07:25:13;7.57;;;3.05;;
5058;SDS011;2548;52.050;11.036;2023-05-31T07:27:40;5.05;;;3.08;;
5058;SDS011;2548;52.050;11.036;2023-05-31T07:30:08;8.03;;;2.90;;
5058;SDS011;2548;52.050;11.036;2023-05-31T07:32:36;8.50;;;4.27;;
5058;SDS011;2548;52.050;11.036;2023-05-31T07:35:03;7.83;;;3.47;;
5058;SDS011;2548;52.050;11.036;2023-05-31T07:37:32;11.23;;;2.87;;
5058;SDS011;2548;52.050;11.036;2023-05-31T07:40:00;6.30;;;2.90;;
5058;SDS011;2548;52.050;11.036;2023-05-31T07:42:29;16.70;;;2.97;;
5058;SDS011;2548;52.050;11.036;2023-05-31T07:44:57;8.93;;;3.87;;
5058;SDS011;2548;52.050;11.036;2023-05-31T07:47:25;21.73;;;3.70;;
5058;SDS011;2548;52.050;11.036;2023-05-31T07:49:52;11.93;;;3.33;;
5058;SDS011;2548;52.050;11.036;2023-05-31T07:52:20;3.83;;;2.30;;
5058;SDS011;2548;52.050;11.036;2023-05-31T07:54:47;15.83;;;3.03;;
5058;SDS011;2548;52.050;11.036;2023-05-31T07:57:16;8.20;;;2.87;;
5058;SDS011;2548;52.050;11.036;2023-05-31T07:59:44;4.70;;;2.13;;
5058;SDS011;2548;52.050;11.036;2023-05-31T08:02:12;4.80;;;2.30;;
5058;SDS011;2548;52.050;11.036;2023-05-31T08:04:39;5.33;;;3.33;;
5058;SDS011;2548;52.050;11.036;2023-05-31T08:07:07;5.93;;;2.60;;
5058;SDS011;2548;52.050;11.036;2023-05-31T08:09:34;3.17;;;2.60;;
5058;SDS011;2548;52.050;11.036;2023-05-31T08:12:02;2.97;;;2.37;;
5058;SDS011;2548;52.050;11.036;2023-05-31T08:14:31;6.53;;;2.90;;
5058;SDS011;2548;52.050;11.036;2023-05-31T08:16:58;8.30;;;2.50;;
5058;SDS011;2548;52.050;11.036;2023-05-31T08:19:26;5.43;;;3.00;;
5058;SDS011;2548;52.050;11.036;2023-05-31T08:21:53;6.47;;;2.90;;
5058;SDS011;2548;52.050;11.036;2023-05-31T08:24:21;9.07;;;2.40;;
5058;SDS011;2548;52.050;11.036;2023-05-31T08:26:49;6.80;;;3.10;;
5058;SDS011;2548;52.050;11.036;2023-05-31T08:29:17;6.63;;;2.80;;
5058;SDS011;2548;52.050;11.036;2023-05-31T08:31:45;10.83;;;2.20;;
5058;SDS011;2548;52.050;11.036;2023-05-31T08:34:13;6.33;;;2.53;;
5058;SDS011;2548;52.050;11.036;2023-05-31T08:36:40;4.80;;;2.30;;
5058;SDS011;2548;52.050;11.036;2023-05-31T08:39:08;8.27;;;2.50;;
5058;SDS011;2548;52.050;11.036;2023-05-31T08:41:36;4.13;;;2.57;;
5058;SDS011;2548;52.050;11.036;2023-05-31T08:44:09;6.83;;;2.70;;
5058;SDS011;2548;52.050;11.036;2023-05-31T08:46:38;3.90;;;2.30;;
5058;SDS011;2548;52.050;11.036;2023-05-31T08:49:08;6.93;;;2.83;;
5058;SDS011;2548;52.050;11.036;2023-05-31T08:51:37;2.77;;;2.50;;
5058;SDS011;2548;52.050;11.036;2023-05-31T08:54:06;9.23;;;2.77;;
5058;SDS011;2548;52.050;11.036;2023-05-31T08:56:36;6.67;;;2.50;;
5058;SDS011;2548;52.050;11.036;2023-05-31T08:59:07;5.47;;;3.23;;
5058;SDS011;2548;52.050;11.036;2023-05-31T09:01:37;4.00;;;1.83;;
5058;SDS011;2548;52.050;11.036;2023-05-31T09:04:06;2.50;;;2.00;;
5058;SDS011;2548;52.050;11.036;2023-05-31T09:06:34;4.40;;;2.43;;
5058;SDS011;2548;52.050;11.036;2023-05-31T09:09:01;5.50;;;2.90;;
5058;SDS011;2548;52.050;11.036;2023-05-31T09:11:29;5.77;;;2.87;;
5058;SDS011;2548;52.050;11.036;2023-05-31T09:13:56;4.00;;;2.20;;
5058;SDS011;2548;52.050;11.036;2023-05-31T09:16:24;4.60;;;2.80;;
5058;SDS011;2548;52.050;11.036;2023-05-31T09:18:58;4.00;;;2.20;;
5058;SDS011;2548;52.050;11.036;2023-05-31T09:21:29;5.10;;;2.50;;
5058;SDS011;2548;52.050;11.036;2023-05-31T09:24:03;4.43;;;2.07;;
5058;SDS011;2548;52.050;11.036;2023-05-31T09:26:31;5.57;;;2.73;;
5058;SDS011;2548;52.050;11.036;2023-05-31T09:28:59;4.70;;;2.10;;
5058;SDS011;2548;52.050;11.036;2023-05-31T09:31:27;3.03;;;2.50;;
5058;SDS011;2548;52.050;11.036;2023-05-31T09:33:54;3.90;;;2.00;;
5058;SDS011;2548;52.050;11.036;2023-05-31T09:36:23;7.30;;;2.70;;
5058;SDS011;2548;52.050;11.036;2023-05-31T09:38:59;8.33;;;2.30;;
5058;SDS011;2548;52.050;11.036;2023-05-31T09:41:28;3.20;;;2.20;;
5058;SDS011;2548;52.050;11.036;2023-05-31T09:43:56;6.80;;;2.40;;
5058;SDS011;2548;52.050;11.036;2023-05-31T09:46:23;5.93;;;2.30;;
5058;SDS011;2548;52.050;11.036;2023-05-31T09:48:58;4.07;;;1.70;;
5058;SDS011;2548;52.050;11.036;2023-05-31T09:51:27;3.60;;;2.57;;
5058;SDS011;2548;52.050;11.036;2023-05-31T09:53:55;2.77;;;1.70;;
5058;SDS011;2548;52.050;11.036;2023-05-31T09:56:27;4.70;;;2.90;;
5058;SDS011;2548;52.050;11.036;2023-05-31T09:58:55;4.80;;;2.30;;
5058;SDS011;2548;52.050;11.036;2023-05-31T10:01:24;15.00;;;2.00;;
5058;SDS011;2548;52.050;11.036;2023-05-31T10:03:52;7.90;;;3.00;;
5058;SDS011;2548;52.050;11.036;2023-05-31T10:06:20;12.03;;;2.40;;
5058;SDS011;2548;52.050;11.036;2023-05-31T10:08:47;5.57;;;2.40;;
5058;SDS011;2548;52.050;11.036;2023-05-31T10:11:17;8.40;;;2.77;;
5058;SDS011;2548;52.050;11.036;2023-05-31T10:13:55;4.37;;;2.60;;
5058;SDS011;2548;52.050;11.036;2023-05-31T10:16:26;5.07;;;2.17;;
5058;SDS011;2548;52.050;11.036;2023-05-31T10:18:56;5.70;;;2.17;;
5058;SDS011;2548;52.050;11.036;2023-05-31T10:21:28;4.50;;;1.90;;
5058;SDS011;2548;52.050;11.036;2023-05-31T10:23:57;3.17;;;1.90;;
5058;SDS011;2548;52.050;11.036;2023-05-31T10:26:31;4.43;;;2.13;;
5058;SDS011;2548;52.050;11.036;2023-05-31T10:29:08;14.20;;;2.23;;
5058;SDS011;2548;52.050;11.036;2023-05-31T10:31:41;2.40;;;2.10;;
5058;SDS011;2548;52.050;11.036;2023-05-31T10:34:15;2.60;;;2.00;;
5058;SDS011;2548;52.050;11.036;2023-05-31T10:36:48;3.73;;;2.03;;
5058;SDS011;2548;52.050;11.036;2023-05-31T10:39:19;9.13;;;2.27;;
5058;SDS011;2548;52.050;11.036;2023-05-31T10:41:54;7.60;;;1.97;;
5058;SDS011;2548;52.050;11.036;2023-05-31T10:44:33;5.50;;;2.43;;
5058;SDS011;2548;52.050;11.036;2023-05-31T10:47:06;5.90;;;2.50;;
5058;SDS011;2548;52.050;11.036;2023-05-31T10:49:36;12.10;;;2.73;;
5058;SDS011;2548;52.050;11.036;2023-05-31T10:52:06;4.60;;;2.20;;
5058;SDS011;2548;52.050;11.036;2023-05-31T10:54:37;4.03;;;2.40;;
5058;SDS011;2548;52.050;11.036;2023-05-31T10:57:06;8.10;;;2.00;;
5058;SDS011;2548;52.050;11.036;2023-05-31T10:59:40;8.03;;;1.83;;
5058;SDS011;2548;52.050;11.036;2023-05-31T11:02:09;5.20;;;2.10;;
5058;SDS011;2548;52.050;11.036;2023-05-31T11:04:37;7.23;;;2.10;;
5058;SDS011;2548;52.050;11.036;2023-05-31T11:07:11;5.67;;;2.47;;
5058;SDS011;2548;52.050;11.036;2023-05-31T11:09:40;4.73;;;2.10;;
5058;SDS011;2548;52.050;11.036;2023-05-31T11:12:11;5.70;;;2.40;;
5058;SDS011;2548;52.050;11.036;2023-05-31T11:14:40;5.60;;;1.93;;
5058;SDS011;2548;52.050;11.036;2023-05-31T11:17:25;7.30;;;1.80;;
5058;SDS011;2548;52.050;11.036;2023-05-31T11:19:53;2.23;;;2.00;;
5058;SDS011;2548;52.050;11.036;2023-05-31T11:22:22;4.00;;;1.77;;
5058;SDS011;2548;52.050;11.036;2023-05-31T11:24:53;4.17;;;1.93;;
5058;SDS011;2548;52.050;11.036;2023-05-31T11:27:33;7.47;;;2.00;;
5058;SDS011;2548;52.050;11.036;2023-05-31T11:30:04;4.27;;;1.73;;
5058;SDS011;2548;52.050;11.036;2023-05-31T11:32:56;2.23;;;1.60;;
5058;SDS011;2548;52.050;11.036;2023-05-31T11:35:30;7.13;;;1.90;;
5058;SDS011;2548;52.050;11.036;2023-05-31T11:38:02;3.13;;;2.27;;
5058;SDS011;2548;52.050;11.036;2023-05-31T11:40:31;3.57;;;2.20;;
5058;SDS011;2548;52.050;11.036;2023-05-31T11:43:07;3.90;;;1.90;;
5058;SDS011;2548;52.050;11.036;2023-05-31T11:45:43;1.77;;;1.67;;
5058;SDS011;2548;52.050;11.036;2023-05-31T11:48:29;4.43;;;1.60;;
5058;SDS011;2548;52.050;11.036;2023-05-31T11:51:01;9.20;;;1.90;;
5058;SDS011;2548;52.050;11.036;2023-05-31T11:53:29;7.13;;;2.30;;
5058;SDS011;2548;52.050;11.036;2023-05-31T11:55:57;3.80;;;1.90;;
5058;SDS011;2548;52.050;11.036;2023-05-31T11:58:25;2.90;;;1.50;;
5058;SDS011;2548;52.050;11.036;2023-05-31T12:00:58;4.07;;;1.73;;
5058;SDS011;2548;52.050;11.036;2023-05-31T12:03:27;2.63;;;2.10;;
5058;SDS011;2548;52.050;11.036;2023-05-31T12:05:56;5.77;;;2.40;;
5058;SDS011;2548;52.050;11.036;2023-05-31T12:08:26;8.00;;;2.20;;
5058;SDS011;2548;52.050;11.036;2023-05-31T12:11:00;2.70;;;2.20;;
5058;SDS011;2548;52.050;11.036;2023-05-31T12:13:29;1.80;;;1.63;;
5058;SDS011;2548;52.050;11.036;2023-05-31T12:15:58;2.10;;;1.67;;
5058;SDS011;2548;52.050;11.036;2023-05-31T12:18:25;2.93;;;1.90;;
5058;SDS011;2548;52.050;11.036;2023-05-31T12:20:55;6.20;;;2.03;;
5058;SDS011;2548;52.050;11.036;2023-05-31T12:23:23;2.33;;;1.57;;
5058;SDS011;2548;52.050;11.036;2023-05-31T12:25:50;7.27;;;2.20;;
5058;SDS011;2548;52.050;11.036;2023-05-31T12:28:18;4.13;;;1.90;;
5058;SDS011;2548;52.050;11.036;2023-05-31T12:30:47;1.97;;;1.70;;
5058;SDS011;2548;52.050;11.036;2023-05-31T12:33:18;4.20;;;1.80;;
5058;SDS011;2548;52.050;11.036;2023-05-31T12:35:46;5.63;;;2.00;;
5058;SDS011;2548;52.050;11.036;2023-05-31T12:38:14;5.93;;;1.83;;
5058;SDS011;2548;52.050;11.036;2023-05-31T12:40:42;7.53;;;1.87;;
5058;SDS011;2548;52.050;11.036;2023-05-31T12:43:11;1.63;;;1.53;;
5058;SDS011;2548;52.050;11.036;2023-05-31T12:45:43;4.90;;;2.03;;
5058;SDS011;2548;52.050;11.036;2023-05-31T12:48:11;3.70;;;2.40;;
5058;SDS011;2548;52.050;11.036;2023-05-31T12:50:48;2.30;;;2.10;;
5058;SDS011;2548;52.050;11.036;2023-05-31T12:53:16;4.50;;;2.10;;
5058;SDS011;2548;52.050;11.036;2023-05-31T12:55:43;3.10;;;1.60;;
5058;SDS011;2548;52.050;11.036;2023-05-31T12:58:12;4.97;;;2.27;;
5058;SDS011;2548;52.050;11.036;2023-05-31T13:00:39;4.10;;;2.10;;
5058;SDS011;2548;52.050;11.036;2023-05-31T13:03:09;6.10;;;1.77;;
5058;SDS011;2548;52.050;11.036;2023-05-31T13:05:39;1.63;;;1.53;;
5058;SDS011;2548;52.050;11.036;2023-05-31T13:08:08;6.00;;;1.90;;
5058;SDS011;2548;52.050;11.036;2023-05-31T13:10:36;5.20;;;1.83;;
5058;SDS011;2548;52.050;11.036;2023-05-31T13:13:04;11.50;;;1.67;;
5058;SDS011;2548;52.050;11.036;2023-05-31T13:15:31;4.97;;;1.97;;
5058;SDS011;2548;52.050;11.036;2023-05-31T13:17:58;4.70;;;2.03;;
5058;SDS011;2548;52.050;11.036;2023-05-31T13:20:26;2.13;;;1.47;;
5058;SDS011;2548;52.050;11.036;2023-05-31T13:22:53;6.67;;;1.17;;
5058;SDS011;2548;52.050;11.036;2023-05-31T13:25:23;4.50;;;1.30;;
5058;SDS011;2548;52.050;11.036;2023-05-31T13:27:50;7.17;;;1.70;;
5058;SDS011;2548;52.050;11.036;2023-05-31T13:30:18;6.20;;;1.83;;
5058;SDS011;2548;52.050;11.036;2023-05-31T13:32:45;2.97;;;1.60;;
5058;SDS011;2548;52.050;11.036;2023-05-31T13:35:13;1.70;;;1.40;;
5058;SDS011;2548;52.050;11.036;2023-05-31T13:37:40;4.80;;;1.53;;
5058;SDS011;2548;52.050;11.036;2023-05-31T13:40:08;7.30;;;1.60;;
5058;SDS011;2548;52.050;11.036;2023-05-31T13:42:37;2.90;;;1.60;;
5058;SDS011;2548;52.050;11.036;2023-05-31T13:45:05;2.63;;;2.33;;
5058;SDS011;2548;52.050;11.036;2023-05-31T13:47:33;2.00;;;1.80;;
5058;SDS011;2548;52.050;11.036;2023-05-31T13:50:02;5.07;;;2.30;;
5058;SDS011;2548;52.050;11.036;2023-05-31T13:52:29;2.20;;;1.73;;
5058;SDS011;2548;52.050;11.036;2023-05-31T13:54:57;5.33;;;1.43;;
5058;SDS011;2548;52.050;11.036;2023-05-31T13:57:25;1.80;;;1.70;;
5058;SDS011;2548;52.050;11.036;2023-05-31T13:59:54;1.23;;;1.10;;
5058;SDS011;2548;52.050;11.036;2023-05-31T14:02:23;2.23;;;1.03;;
5058;SDS011;2548;52.050;11.036;2023-05-31T14:04:50;3.13;;;1.50;;
5058;SDS011;2548;52.050;11.036;2023-05-31T14:07:17;2.90;;;1.70;;
5058;SDS011;2548;52.050;11.036;2023-05-31T14:09:46;6.10;;;1.60;;
5058;SDS011;2548;52.050;11.036;2023-05-31T14:12:13;8.40;;;1.63;;
5058;SDS011;2548;52.050;11.036;2023-05-31T14:14:41;2.20;;;1.27;;
5058;SDS011;2548;52.050;11.036;2023-05-31T14:17:09;4.87;;;1.43;;
5058;SDS011;2548;52.050;11.036;2023-05-31T14:19:37;6.43;;;1.27;;
5058;SDS011;2548;52.050;11.036;2023-05-31T14:22:04;3.60;;;1.60;;
5058;SDS011;2548;52.050;11.036;2023-05-31T14:24:32;1.73;;;1.63;;
5058;SDS011;2548;52.050;11.036;2023-05-31T14:27:00;1.70;;;1.30;;
5058;SDS011;2548;52.050;11.036;2023-05-31T14:29:28;3.77;;;1.53;;
5058;SDS011;2548;52.050;11.036;2023-05-31T14:31:55;3.33;;;1.30;;
5058;SDS011;2548;52.050;11.036;2023-05-31T14:34:24;4.27;;;1.73;;
5058;SDS011;2548;52.050;11.036;2023-05-31T14:36:51;3.20;;;1.90;;
5058;SDS011;2548;52.050;11.036;2023-05-31T14:39:19;3.83;;;1.40;;
5058;SDS011;2548;52.050;11.036;2023-05-31T14:41:47;13.07;;;1.90;;
5058;SDS011;2548;52.050;11.036;2023-05-31T14:44:14;2.60;;;1.20;;
5058;SDS011;2548;52.050;11.036;2023-05-31T14:46:42;1.40;;;1.30;;
5058;SDS011;2548;52.050;11.036;2023-05-31T14:49:09;1.57;;;1.47;;
5058;SDS011;2548;52.050;11.036;2023-05-31T14:51:38;1.60;;;1.30;;
5058;SDS011;2548;52.050;11.036;2023-05-31T14:54:06;7.23;;;1.60;;
5058;SDS011;2548;52.050;11.036;2023-05-31T14:56:33;2.90;;;1.43;;
5058;SDS011;2548;52.050;11.036;2023-05-31T14:59:00;1.27;;;1.17;;
5058;SDS011;2548;52.050;11.036;2023-05-31T15:01:28;1.30;;;1.17;;
5058;SDS011;2548;52.050;11.036;2023-05-31T15:03:56;3.93;;;1.37;;
5058;SDS011;2548;52.050;11.036;2023-05-31T15:06:24;4.30;;;1.47;;
5058;SDS011;2548;52.050;11.036;2023-05-31T15:08:53;3.93;;;1.50;;
5058;SDS011;2548;52.050;11.036;2023-05-31T15:11:20;1.37;;;1.13;;